Home > Products > Valid Products > MTR

000
SAUS46 KPDT 231658
MTRMEH
METAR KMEH 231656Z AUTO VRB04KT 10SM BKN015 BKN050 14/09 A3018 RMK
AO2 SLP215 T01390094





000
SAUS46 KPDT 231632
MTRMEH
SPECI KMEH 231631Z AUTO VRB04KT 10SM BKN015 13/10 A3018 RMK AO2
T01330100





000
SAUS46 KPDT 231557
MTRMEH
METAR KMEH 231556Z AUTO 00000KT 10SM BKN011 13/11 A3017 RMK AO2
SLP210 T01280106





000
SAUS46 KPDT 231508
MTRMEH
SPECI KMEH 231504Z AUTO 00000KT 10SM BKN011 09/08 A3016 RMK AO2
T00940078





000
SAUS46 KPDT 231457
MTRMEH
METAR KMEH 231456Z AUTO 00000KT 10SM SCT011 09/07 A3016 RMK AO2
SLP208 T00890072 53012





000
SAUS46 KPDT 231357
MTRMEH
METAR KMEH 231356Z AUTO 00000KT 10SM CLR 04/04 A3014 RMK AO2 SLP207
T00440039





000
SAUS46 KPDT 231256
MTRMEH
METAR KMEH 231256Z AUTO 00000KT 10SM CLR 04/03 A3013 RMK AO2 SLP203
T00390033





000
SAUS46 KPDT 231158
MTRMEH
METAR KMEH 231156Z AUTO 00000KT 10SM CLR 05/04 A3012 RMK AO2 SLP194
70005 T00500039 10089 20050 50006





000
SAUS46 KPDT 231100
MTRMEH
METAR KMEH 231056Z AUTO 00000KT 10SM CLR 06/05 A3012 RMK AO2 SLP192
T00560050





000
SAUS46 KPDT 230958
MTRMEH
METAR KMEH 230956Z AUTO 00000KT 10SM FEW110 07/06 A3012 RMK AO2
SLP189 T00670056





000
SAUS46 KPDT 230858
MTRMEH
METAR KMEH 230856Z AUTO 00000KT 10SM SCT095 08/07 A3010 RMK AO2
SLP183 T00780067 53002





000
SAUS46 KPDT 230758
MTRMEH
METAR KMEH 230756Z AUTO 00000KT 10SM BKN090 08/08 A3009 RMK AO2
SLP178 T00830078 402060033





000
SAUS46 KPDT 230657
MTRMEH
METAR KMEH 230656Z AUTO 00000KT 10SM SCT090 BKN100 09/08 A3009 RMK
AO2 SLP178 T00890078





000
SAUS46 KPDT 230557
MTRMEH
METAR KMEH 230556Z AUTO 00000KT 10SM FEW060 09/08 A3009 RMK AO2
SLP183 60005 T00890083 10178 20089 53008





000
SAUS46 KPDT 230457
MTRMEH
METAR KMEH 230456Z AUTO 00000KT 10SM CLR 09/09 A3007 RMK AO2 SLP176
T00940089





000
SAUS46 KPDT 230357
MTRMEH
METAR KMEH 230356Z AUTO 00000KT 10SM SCT055 BKN090 OVC110 11/10
A3007 RMK AO2 RAE55 SLP175 P0004 T01060100





000
SAUS46 KPDT 230257
MTRMEH
METAR KMEH 230256Z AUTO 02007KT 9SM -RA FEW043 SCT070 BKN095 14/09
A3007 RMK AO2 RAB52 SLP174 P0001 60001 T01390094 51013





000
SAUS46 KPDT 230157
MTRMEH
METAR KMEH 230156Z AUTO 00000KT 10SM BKN055 BKN075 BKN120 14/12
A3005 RMK AO2 RAE39 SLP174 P0000 T01440117





000
SAUS46 KPDT 230056
MTRMEH
METAR KMEH 230056Z AUTO 00000KT 10SM -RA FEW055 SCT075 OVC100 15/10
A3005 RMK AO2 SLP174 P0000 T01500100





000
SAUS46 KPDT 230002 COR
MTRMEH
METAR KMEH 222356Z AUTO VRB04KT 10SM -RA FEW045 SCT055 BKN075 18/08
A3003 RMK AO2 RAB56 SLP162 P0000 60000 T01780078 10206 20156 55001





000
SAUS46 KPDT 230001 COR
MTRMEH
METAR KMEH 222356Z AUTO VRB04KT 10SM -RA FEW045 SCT055 BKN075 18/08
A3003 RMK AO2 RAB56 SLP162 P0000 60000 T01780078 10206 20156 55001





000
SAUS46 KPDT 230000
MTRMEH
METAR KMEH 222356Z AUTO VRB04KT 10SM -RA FEW045 SCT055 BKN075 18/08
A3003 RMK AO2 RAB56 SLP162 P0000 60000 T01780078 10206 20156 55001





000
SAUS46 KPDT 222257
MTRMEH
METAR KMEH 222256Z AUTO VRB05KT 10SM SCT039 SCT065 20/08 A3002 RMK
AO2 SLP155 T02000083





000
SAUS46 KPDT 222200
MTRMEH
METAR KMEH 222156Z AUTO VRB04KT 10SM FEW039 SCT049 BKN060 19/08
A3002 RMK AO2 SLP156 T01890083





000
SAUS46 KPDT 222100
MTRMEH
METAR KMEH 222056Z AUTO 10SM BKN040 19/07 A3003 RMK AO2 SLP159
T01890072 58002





000
SAUS46 KPDT 221957
MTRMEH
METAR KMEH 221956Z AUTO VRB03KT 10SM BKN038 18/08 A3003 RMK AO2
SLP159 T01830083





000
SAUS46 KPDT 221900
MTRMEH
METAR KMEH 221856Z AUTO VRB03KT 10SM OVC031 17/09 A3003 RMK AO2
SLP161 T01720089





000
SAUS46 KPDT 221826
MTRMEH
SPECI KMEH 221826Z AUTO 01005KT 10SM BKN031 17/09 A3003 RMK AO2
T01670089





000
SAUS46 KPDT 221757
MTRMEH
METAR KMEH 221756Z AUTO 03003KT 10SM BKN028 OVC033 16/08 A3003 RMK
AO2 SLP161 T01560083 10167 20033 53004





000
SAUS46 KPDT 221658
MTRMEH
METAR KMEH 221656Z AUTO VRB03KT 10SM BKN026 15/08 A3003 RMK AO2
SLP159 T01500078





000
SAUS46 KPDT 221651
MTRMEH
SPECI KMEH 221651Z AUTO VRB04KT 10SM BKN026 16/08 A3003 RMK AO2





000
SAUS46 KPDT 221556
MTRMEH
METAR KMEH 221556Z AUTO VRB04KT 10SM CLR 14/07 A3002 RMK AO2 SLP156
T01440072





000
SAUS46 KPDT 221458
MTRMEH
METAR KMEH 221456Z AUTO 00000KT 10SM FEW120 11/06 A3001 RMK AO2
SLP154 T01060056 53005





000
SAUS46 KPDT 221402
MTRMEH
METAR KMEH 221356Z AUTO 00000KT 10SM FEW120 05/03 A3001 RMK AO2
SLP156 T00500028





000
SAUS46 KPDT 221258
MTRMEH
METAR KMEH 221256Z AUTO 00000KT 10SM CLR 03/02 A3000 RMK AO2 SLP151
T00330017





000
SAUS46 KPDT 221157
MTRMEH
METAR KMEH 221156Z AUTO 00000KT 10SM CLR 04/03 A3000 RMK AO2 SLP147
T00440028 10094 20044 51001





000
SAUS46 KPDT 221100
MTRMEH
METAR KMEH 221056Z AUTO 00000KT 10SM CLR 06/03 A2999 RMK AO2 SLP143
T00560028





000
SAUS46 KPDT 220958
MTRMEH
METAR KMEH 220956Z AUTO 00000KT 10SM CLR 06/03 A3000 RMK AO2 SLP145
T00610028





000
SAUS46 KPDT 220857
MTRMEH
METAR KMEH 220856Z AUTO 00000KT 10SM CLR 07/03 A2999 RMK AO2 SLP143
T00670028 55002





000
SAUS46 KPDT 220757
MTRMEH
METAR KMEH 220756Z AUTO 00000KT 10SM CLR 08/02 A2999 RMK AO2 SLP140
T00780022 402330017





000
SAUS46 KPDT 220656
MTRMEH
METAR KMEH 220656Z AUTO 00000KT 10SM CLR 08/03 A3000 RMK AO2 SLP144
T00830028





000
SAUS46 KPDT 220556
MTRMEH
METAR KMEH 220556Z AUTO 00000KT 10SM CLR 09/02 A3000 RMK AO2 SLP145
T00940022 10228 20094 51004





000
SAUS46 KPDT 220457
MTRMEH
METAR KMEH 220456Z AUTO 00000KT 10SM CLR 11/03 A3000 RMK AO2 SLP146
T01060033





000
SAUS46 KPDT 220357
MTRMEH
METAR KMEH 220356Z AUTO 00000KT 10SM CLR 12/04 A3000 RMK AO2 SLP146
T01220039





000
SAUS46 KPDT 220257
MTRMEH
METAR KMEH 220256Z AUTO 00000KT 10SM CLR 15/01 A2999 RMK AO2 SLP146
T01500011 53000





000
SAUS46 KPDT 220158
MTRMEH
METAR KMEH 220156Z AUTO 00000KT 10SM CLR 18/M02 A2998 RMK AO2 SLP146
T01831017





000
SAUS46 KPDT 220056
MTRMEH
METAR KMEH 220056Z AUTO VRB03KT 10SM CLR 21/M01 A2998 RMK AO2 SLP146
T02111006





000
SAUS46 KPDT 212357
MTRMEH
METAR KMEH 212356Z AUTO VRB04KT 10SM CLR 22/01 A2999 RMK AO2 SLP146
T02170011 10233 20189 56007





000
SAUS46 KPDT 212258
MTRMEH
METAR KMEH 212256Z AUTO VRB05KT 10SM CLR 23/03 A2999 RMK AO2 SLP143
T02330033





000
SAUS46 KPDT 212158
MTRMEH
METAR KMEH 212156Z AUTO VRB05KT 10SM CLR 22/04 A3000 RMK AO2 SLP149
T02220039





000
SAUS46 KPDT 212057
MTRMEH
METAR KMEH 212056Z AUTO VRB03KT 10SM CLR 22/04 A3001 RMK AO2 SLP151
T02220044 56008





000
SAUS46 KPDT 211958
MTRMEH
METAR KMEH 211956Z AUTO 00000KT 10SM CLR 22/03 A3002 RMK AO2 SLP152
T02170033





000
SAUS46 KPDT 211858
MTRMEH
METAR KMEH 211856Z AUTO 00000KT 10SM CLR 20/04 A3002 RMK AO2 SLP156
T02000044





000
SAUS46 KPDT 211757
MTRMEH
METAR KMEH 211756Z AUTO 00000KT 10SM CLR 19/04 A3004 RMK AO2 SLP160
T01890044 10189 20017 58000





000
SAUS46 KPDT 211657
MTRMEH
METAR KMEH 211656Z AUTO VRB03KT 10SM CLR 17/05 A3004 RMK AO2 SLP163
T01670050





000
SAUS46 KPDT 211557
MTRMEH
METAR KMEH 211556Z AUTO 00000KT 10SM CLR 15/06 A3004 RMK AO2 SLP161
T01500056





000
SAUS46 KPDT 211457
MTRMEH
METAR KMEH 211456Z AUTO 00000KT 10SM CLR 09/03 A3004 RMK AO2 SLP161
T00890033 51005





000
SAUS46 KPDT 211358
MTRMEH
METAR KMEH 211356Z AUTO 00000KT 10SM CLR 03/02 A3004 RMK AO2 SLP165
T00330017





000
SAUS46 KPDT 211257
MTRMEH
METAR KMEH 211256Z AUTO 00000KT 10SM FEW050 02/01 A3002 RMK AO2
SLP159 T00220006





000
SAUS46 KPDT 211158
MTRMEH
METAR KMEH 211156Z AUTO 00000KT 10SM CLR 02/01 A3002 RMK AO2 SLP158
T00220011 10078 20022 53004





000
SAUS46 KPDT 211058
MTRMEH
METAR KMEH 211056Z AUTO 00000KT 10SM CLR 03/01 A3001 RMK AO2 SLP154
T00280011





000
SAUS46 KPDT 210958
MTRMEH
METAR KMEH 210956Z AUTO 00000KT 10SM CLR 03/02 A3001 RMK AO2 SLP153
T00330017





000
SAUS46 KPDT 210858
MTRMEH
METAR KMEH 210856Z AUTO 00000KT 10SM CLR 04/02 A3001 RMK AO2 SLP150
T00440017 50007





000
SAUS46 KPDT 210800
MTRMEH
METAR KMEH 210756Z AUTO 00000KT 10SM CLR 06/02 A3001 RMK AO2 SLP151
T00560022 402280056





000
SAUS46 KPDT 210702 COR
MTRMEH
METAR KMEH 210656Z AUTO 00000KT 10SM CLR 07/03 A3000 RMK AO2 SLP147
T00670028





000
SAUS46 KPDT 210656
MTRMEH
METAR KMEH 210656Z AUTO 00000KT 10SM CLR 07/03 A3000 RMK AO2 SLP147
T00670028





000
SAUS46 KPDT 210558
MTRMEH
METAR KMEH 210556Z AUTO 00000KT 10SM CLR 08/02 A2998 RMK AO2 SLP142
T00780022 10222 20078 51013





000
SAUS46 KPDT 210457
MTRMEH
METAR KMEH 210456Z AUTO 00000KT 10SM CLR 10/01 A2998 RMK AO2 SLP138
T01000006





000
SAUS46 KPDT 210357
MTRMEH
METAR KMEH 210356Z AUTO 00000KT 10SM CLR 13/M01 A2997 RMK AO2 SLP134
T01281006





000
SAUS46 KPDT 210257
MTRMEH
METAR KMEH 210256Z AUTO 00000KT 10SM CLR 17/M03 A2994 RMK AO2 SLP121
T01721033 53004





000
SAUS46 KPDT 210157
MTRMEH
METAR KMEH 210156Z AUTO 10SM CLR 19/M02 A2994 RMK AO2 SLP119
T01941022





000
SAUS46 KPDT 210056
MTRMEH
METAR KMEH 210056Z AUTO VRB04KT 10SM CLR 22/03 A2993 RMK AO2 SLP113
T02170033





000
SAUS46 KPDT 202358
MTRMEH
METAR KMEH 202356Z AUTO 10SM CLR 22/04 A2993 RMK AO2 SLP112
T02220039 10228 20183 55004





000
SAUS46 KPDT 202257
MTRMEH
METAR KMEH 202256Z AUTO 00000KT 10SM CLR 23/06 A2993 RMK AO2 SLP110
T02280061





000
SAUS46 KPDT 202157
MTRMEH
METAR KMEH 202156Z AUTO VRB04KT 10SM CLR 22/07 A2993 RMK AO2 SLP115
T02170067





000
SAUS46 KPDT 202057
MTRMEH
METAR KMEH 202056Z AUTO 00000KT 10SM CLR 22/07 A2994 RMK AO2 SLP117
T02170072 58002





000
SAUS46 KPDT 201957
MTRMEH
METAR KMEH 201956Z AUTO VRB05KT 10SM SCT041 21/08 A2995 RMK AO2
SLP116 T02110083





000
SAUS46 KPDT 201857
MTRMEH
METAR KMEH 201856Z AUTO VRB04KT 10SM SCT040 20/09 A2995 RMK AO2
SLP116 T02000089





000
SAUS46 KPDT 201757
MTRMEH
METAR KMEH 201756Z AUTO VRB03KT 10SM BKN031 18/09 A2995 RMK AO2
SLP116 T01830089 10189 20122 50006





    US Dept of Commerce
    National Oceanic and Atmospheric Administration
    National Weather Service
    1325 East West Highway
    Silver Spring, MD 20910
    Page Author: NWS Internet Services Team
Disclaimer
Information Quality
Credits
Glossary
Privacy Policy
Freedom of Information Act (FOIA)
About Us
Career Opportunities